Time;durP1;ratioP1;P1;durP2;ratioP2;P2;SDS_P1;SDS_P2;PMS_P1;PMS_P2;Temp;Humidity;BMP_temperature;BMP_pressure;BME280_temperature;BME280_humidity;BME280_pressure;Samples;Min_cycle;Max_cycle;Signal;HPM_P1;HPM_P2
2023/02/26 00:02:09;;;;;;;10.50;3.40;;;;;;;10.59;57.88;101719.69;5099562;28;20032;-52
2023/02/26 00:04:36;;;;;;;12.65;3.78;;;;;;;10.61;57.68;101720.38;5099997;28;20032;-51
2023/02/26 00:07:04;;;;;;;8.52;3.10;;;;;;;10.72;57.54;101724.47;5096747;28;20036;-51
2023/02/26 00:09:31;;;;;;;14.85;3.38;;;;;;;10.82;57.43;101724.25;5106413;28;20046;-51
2023/02/26 00:11:58;;;;;;;9.02;3.13;;;;;;;10.80;57.49;101723.59;5101431;28;20024;-54
2023/02/26 00:14:23;;;;;;;8.30;2.58;;;;;;;10.87;57.34;101727.28;5113337;28;20067;-52
2023/02/26 00:17:12;;;;;;;10.10;3.60;;;;;;;10.91;56.77;101717.88;5097215;28;20035;-51
2023/02/26 00:19:37;;;;;;;9.77;2.92;;;;;;;10.90;56.48;101727.72;5099591;28;20047;-51
2023/02/26 00:22:04;;;;;;;17.20;3.63;;;;;;;10.85;56.30;101726.63;5105478;28;20280;-51
2023/02/26 00:24:29;;;;;;;15.30;2.95;;;;;;;10.96;56.04;101733.41;5099271;28;20054;-51
2023/02/26 00:26:55;;;;;;;12.60;2.87;;;;;;;10.80;55.95;101731.63;5094640;28;20064;-49
2023/02/26 00:29:20;;;;;;;9.30;2.75;;;;;;;10.63;55.94;101729.06;5081155;28;20028;-50
2023/02/26 00:31:46;;;;;;;8.52;3.17;;;;;;;10.52;56.35;101740.97;5098218;28;20043;-55
2023/02/26 00:34:12;;;;;;;6.68;2.55;;;;;;;10.45;56.55;101746.16;5095862;28;20036;-51
2023/02/26 00:36:44;;;;;;;8.85;2.85;;;;;;;10.27;56.84;101745.50;5101177;28;20071;-47
2023/02/26 00:39:31;;;;;;;10.95;2.85;;;;;;;10.10;57.13;101750.88;5098405;28;20059;-52
2023/02/26 00:41:57;;;;;;;6.22;2.42;;;;;;;10.08;57.01;101757.44;5091432;28;20062;-48
2023/02/26 00:44:23;;;;;;;4.85;2.10;;;;;;;10.01;57.18;101763.44;5096161;28;20104;-50
2023/02/26 00:46:58;;;;;;;8.63;2.35;;;;;;;9.89;57.62;101775.47;5098253;28;20039;-50
2023/02/26 00:49:43;;;;;;;5.95;1.90;;;;;;;9.99;57.65;101776.13;5078494;28;20056;-50
2023/02/26 00:52:28;;;;;;;9.98;2.00;;;;;;;9.86;57.54;101779.31;5097475;28;20036;-48
2023/02/26 00:54:53;;;;;;;16.35;2.47;;;;;;;9.68;57.76;101792.00;5099725;28;20058;-49
2023/02/26 00:57:19;;;;;;;10.40;2.80;;;;;;;9.64;58.00;101787.97;5078253;28;20020;-49
2023/02/26 00:59:44;;;;;;;8.37;1.93;;;;;;;9.56;57.89;101792.31;5080036;28;20392;-49
2023/02/26 01:02:10;;;;;;;11.53;1.90;;;;;;;9.73;57.93;101793.16;5097918;28;20064;-48
2023/02/26 01:04:35;;;;;;;8.87;1.83;;;;;;;9.48;58.16;101789.66;5099441;28;20028;-48
2023/02/26 01:07:01;;;;;;;9.77;1.90;;;;;;;9.37;58.28;101792.63;5093761;28;20088;-51
2023/02/26 01:09:29;;;;;;;7.80;2.55;;;;;;;9.36;58.50;101786.47;5080711;28;20028;-50
2023/02/26 01:11:57;;;;;;;15.00;2.42;;;;;;;9.40;58.24;101782.47;5095043;28;20119;-47
2023/02/26 01:14:23;;;;;;;8.57;2.38;;;;;;;9.31;58.29;101784.28;5114676;28;20036;-47
2023/02/26 01:16:58;;;;;;;8.65;2.38;;;;;;;9.31;58.29;101783.44;5083396;28;20035;-49
2023/02/26 01:19:36;;;;;;;7.05;2.47;;;;;;;9.30;58.52;101784.44;5098353;28;20035;-50
2023/02/26 01:22:17;;;;;;;11.35;3.58;;;;;;;9.19;58.57;101785.56;5085165;28;20051;-53
2023/02/26 01:24:45;;;;;;;8.70;2.13;;;;;;;9.15;58.75;101784.22;5088323;28;20036;-53
2023/02/26 01:27:10;;;;;;;12.88;2.88;;;;;;;9.19;58.85;101780.22;5103282;28;20036;-51
2023/02/26 01:29:36;;;;;;;5.13;1.50;;;;;;;9.05;59.07;101789.69;5102789;28;20088;-52
2023/02/26 01:32:18;;;;;;;10.10;1.83;;;;;;;9.08;58.98;101786.72;5103602;28;20103;-53
2023/02/26 01:34:55;;;;;;;11.77;1.70;;;;;;;9.08;59.27;101794.72;5081457;28;20281;-47
2023/02/26 01:37:30;;;;;;;5.97;2.30;;;;;;;9.00;59.40;101797.38;5081641;28;20033;-52
2023/02/26 01:40:02;;;;;;;13.38;3.58;;;;;;;9.01;59.38;101809.72;5102530;28;20032;-51
2023/02/26 01:42:34;;;;;;;8.77;2.17;;;;;;;8.92;59.46;101808.84;5097366;28;20043;-50
2023/02/26 01:45:09;;;;;;;12.05;3.35;;;;;;;8.98;59.38;101821.53;5104723;28;20028;-49
2023/02/26 01:47:44;;;;;;;9.15;2.80;;;;;;;8.95;59.09;101813.03;5119469;28;20028;-51
2023/02/26 01:50:20;;;;;;;5.68;1.90;;;;;;;8.91;59.21;101815.16;5102392;28;20083;-51
2023/02/26 01:52:48;;;;;;;8.38;1.88;;;;;;;8.80;59.27;101820.81;5101619;28;20032;-48
2023/02/26 01:55:21;;;;;;;9.52;2.58;;;;;;;8.75;59.31;101824.75;5082398;28;20032;-49
2023/02/26 01:57:48;;;;;;;9.65;2.45;;;;;;;8.70;59.14;101827.06;5079399;28;20039;-47
2023/02/26 02:00:15;;;;;;;9.85;1.70;;;;;;;8.79;59.09;101822.63;5083864;28;20028;-51
2023/02/26 02:02:41;;;;;;;8.15;1.80;;;;;;;8.90;58.74;101826.84;5099166;28;20101;-48
2023/02/26 02:05:13;;;;;;;11.20;1.63;;;;;;;8.97;58.23;101824.38;5083876;28;20032;-48
2023/02/26 02:07:39;;;;;;;8.93;2.05;;;;;;;8.92;58.07;101838.19;5101826;28;20036;-52
2023/02/26 02:10:05;;;;;;;4.13;1.77;;;;;;;8.88;58.08;101836.84;5101131;28;20033;-50
2023/02/26 02:12:40;;;;;;;8.32;2.05;;;;;;;8.88;58.03;101842.16;5098222;28;20032;-47
2023/02/26 02:15:18;;;;;;;6.90;1.40;;;;;;;8.83;57.90;101844.47;5081735;28;20039;-50
2023/02/26 02:18:26;;;;;;;11.82;1.90;;;;;;;8.85;57.79;101848.66;5079977;28;20062;-50
2023/02/26 02:21:33;;;;;;;10.55;2.30;;;;;;;8.77;57.83;101847.78;4993773;28;20022;-52
2023/02/26 02:24:14;;;;;;;10.90;1.95;;;;;;;8.74;57.71;101849.75;5096008;28;20044;-49
2023/02/26 02:27:00;;;;;;;17.73;4.57;;;;;;;8.71;57.77;101854.59;5098100;28;20313;-49
2023/02/26 02:29:48;;;;;;;5.90;1.95;;;;;;;8.72;57.75;101853.59;5102510;28;20039;-51
2023/02/26 02:32:24;;;;;;;;;;;;;;;8.74;57.49;101862.28;5081832;28;20039;-48
2023/02/26 02:35:19;;;;;;;4.70;1.42;;;;;;;8.80;56.97;101861.63;5096317;28;19922;-50
2023/02/26 02:37:53;;;;;;;3.95;1.00;;;;;;;8.67;57.21;101861.25;5099174;28;20167;-53
2023/02/26 02:40:32;;;;;;;5.97;1.73;;;;;;;8.56;57.52;101867.66;5098108;28;20036;-50
2023/02/26 02:43:02;;;;;;;6.80;1.52;;;;;;;8.56;57.52;101873.81;5083450;28;20032;-53
2023/02/26 02:45:55;;;;;;;10.15;1.63;;;;;;;8.55;57.10;101869.47;5083662;28;20044;-50
2023/02/26 02:48:37;;;;;;;3.72;1.13;;;;;;;8.43;56.99;101874.19;5087275;28;20081;-54
2023/02/26 02:51:07;;;;;;;5.78;1.88;;;;;;;8.51;57.23;101877.94;5082216;28;20033;-53
2023/02/26 02:53:44;;;;;;;10.27;1.92;;;;;;;8.41;57.12;101876.19;5081482;28;20041;-49
2023/02/26 02:56:24;;;;;;;5.60;1.52;;;;;;;8.30;57.47;101881.75;5113725;28;20671;-52
2023/02/26 02:59:02;;;;;;;9.48;1.40;;;;;;;8.39;57.09;101875.50;5083431;28;20043;-52
2023/02/26 03:01:30;;;;;;;14.40;2.85;;;;;;;8.39;57.11;101886.19;5087503;28;20052;-51
2023/02/26 03:04:11;;;;;;;7.32;1.38;;;;;;;8.30;57.01;101889.75;5112286;28;20051;-54
2023/02/26 03:06:37;;;;;;;16.17;1.55;;;;;;;8.30;56.86;101892.41;5098719;28;20032;-52
2023/02/26 03:09:04;;;;;;;6.60;1.17;;;;;;;8.35;56.79;101894.63;5098925;28;20044;-48
2023/02/26 03:11:31;;;;;;;6.90;1.00;;;;;;;8.28;56.70;101894.41;5100007;28;20036;-52
2023/02/26 03:13:58;;;;;;;4.50;1.50;;;;;;;8.21;56.71;101904.00;5080432;28;20025;-50
2023/02/26 03:17:05;;;;;;;5.05;1.35;;;;;;;8.24;56.29;101903.69;5085134;28;20031;-50
2023/02/26 03:20:10;;;;;;;10.07;1.33;;;;;;;8.28;56.10;101905.06;5080921;28;20044;-48
2023/02/26 03:22:45;;;;;;;5.30;1.63;;;;;;;8.17;56.35;101903.47;5078549;28;20052;-55
2023/02/26 03:25:37;;;;;;;7.32;1.10;;;;;;;8.15;56.32;101908.13;5099588;28;20093;-52
2023/02/26 03:28:39;;;;;;;4.35;1.38;;;;;;;8.07;56.54;101908.88;5096367;28;20043;-51
2023/02/26 03:31:09;;;;;;;6.05;1.35;;;;;;;8.03;56.44;101912.84;5084002;28;20047;-47
2023/02/26 03:33:51;;;;;;;5.45;1.40;;;;;;;8.17;56.29;101922.13;5098718;28;20044;-49
2023/02/26 03:36:27;;;;;;;8.00;1.83;;;;;;;8.07;56.46;101924.03;5078939;28;20048;-49
2023/02/26 03:39:13;;;;;;;6.65;1.38;;;;;;;7.86;57.03;101925.16;5085041;28;20036;-51
2023/02/26 03:41:59;;;;;;;4.65;1.30;;;;;;;7.93;57.00;101928.88;5096658;28;20103;-46
2023/02/26 03:44:36;;;;;;;9.18;1.45;;;;;;;7.99;57.05;101927.47;5078672;28;20028;-49
2023/02/26 03:47:06;;;;;;;5.72;1.25;;;;;;;7.87;57.31;101926.84;5084249;28;20036;-50
2023/02/26 03:49:41;;;;;;;15.15;1.48;;;;;;;7.74;57.72;101930.72;5113894;28;20392;-49
2023/02/26 03:52:06;;;;;;;5.97;0.98;;;;;;;7.98;57.40;101944.44;5099919;28;20135;-49
2023/02/26 03:54:56;;;;;;;6.05;1.45;;;;;;;7.83;57.03;101944.13;5081672;28;20027;-50
2023/02/26 03:57:41;;;;;;;6.25;1.25;;;;;;;7.78;56.80;101946.41;5094950;28;20071;-48
2023/02/26 04:00:18;;;;;;;11.10;1.50;;;;;;;7.71;56.77;101948.81;5087872;28;20036;-52
2023/02/26 04:02:54;;;;;;;8.48;1.20;;;;;;;7.69;56.46;101946.28;5096536;28;20032;-49
2023/02/26 04:05:25;;;;;;;2.80;1.30;;;;;;;7.71;56.05;101948.81;5093792;28;20051;-49
2023/02/26 04:07:51;;;;;;;5.85;1.02;;;;;;;7.77;55.93;101963.38;5078547;28;20021;-50
2023/02/26 04:10:23;;;;;;;3.67;1.27;;;;;;;7.65;55.88;101968.06;5081237;28;20039;-47
2023/02/26 04:12:49;;;;;;;5.22;1.27;;;;;;;7.67;55.74;101960.75;5079077;28;20058;-54
2023/02/26 04:15:14;;;;;;;6.32;1.88;;;;;;;7.70;55.42;101966.59;5083360;28;20028;-50
2023/02/26 04:17:41;;;;;;;3.38;1.30;;;;;;;7.66;55.34;101972.38;5083175;28;20062;-51
2023/02/26 04:20:11;;;;;;;4.53;1.53;;;;;;;7.63;55.59;101975.34;5081498;28;20031;-48
2023/02/26 04:22:37;;;;;;;5.93;1.10;;;;;;;7.57;55.68;101977.59;5080450;28;20280;-49
2023/02/26 04:25:04;;;;;;;8.85;1.33;;;;;;;7.54;55.68;101988.53;5082502;28;20322;-49
2023/02/26 04:27:30;;;;;;;;;;;;;;;7.51;55.51;101982.69;5111485;28;20048;-51
2023/02/26 04:29:56;;;;;;;13.43;1.60;;;;;;;7.55;55.61;101992.06;5077816;28;19912;-50
2023/02/26 04:32:22;;;;;;;8.02;1.42;;;;;;;7.49;55.52;101988.16;5080700;28;20036;-46
2023/02/26 04:34:48;;;;;;;9.77;1.58;;;;;;;7.42;55.97;101995.06;5074042;28;20104;-51
2023/02/26 04:37:15;;;;;;;8.10;1.20;;;;;;;7.47;55.68;101998.09;5059111;28;20503;-51
2023/02/26 04:39:41;;;;;;;10.20;1.50;;;;;;;7.41;55.81;101993.38;5059295;28;20029;-52
2023/02/26 04:42:08;;;;;;;15.10;2.95;;;;;;;7.41;55.71;102002.19;5059774;28;20037;-46
2023/02/26 04:44:33;;;;;;;5.10;1.33;;;;;;;7.33;55.79;102002.09;5059293;28;20052;-49
2023/02/26 04:47:00;;;;;;;7.82;1.70;;;;;;;7.24;56.04;102006.44;5060693;28;20078;-48
2023/02/26 04:49:27;;;;;;;6.28;1.20;;;;;;;7.28;55.92;102015.81;5059576;28;20041;-49
2023/02/26 04:51:52;;;;;;;6.82;1.52;;;;;;;7.22;56.06;102015.53;5052532;28;20126;-48
2023/02/26 04:54:18;;;;;;;5.93;1.63;;;;;;;7.18;56.24;102020.34;5056232;28;20033;-50
2023/02/26 04:56:44;;;;;;;6.55;1.30;;;;;;;7.36;55.69;102028.41;5059295;28;20036;-51
2023/02/26 04:59:09;;;;;;;10.90;1.73;;;;;;;7.32;55.54;102025.19;5060664;28;20048;-49
2023/02/26 05:01:34;;;;;;;12.13;2.00;;;;;;;7.23;55.73;102025.22;5057326;28;20281;-51
2023/02/26 05:04:03;;;;;;;7.82;1.20;;;;;;;7.27;55.39;102022.13;5053485;28;20044;-48
2023/02/26 05:06:29;;;;;;;5.32;1.20;;;;;;;7.17;55.41;102031.97;5059359;28;20033;-50
2023/02/26 05:08:55;;;;;;;5.78;1.27;;;;;;;7.06;55.55;102032.97;5055561;28;20030;-55
2023/02/26 05:11:20;;;;;;;5.35;1.42;;;;;;;7.11;55.67;102035.16;5061318;28;20128;-50
2023/02/26 05:13:46;;;;;;;7.07;1.47;;;;;;;7.06;55.40;102048.06;5058376;28;20053;-51
2023/02/26 05:16:12;;;;;;;5.80;1.30;;;;;;;7.01;55.66;102040.50;5058169;28;20052;-50
2023/02/26 05:18:38;;;;;;;10.88;1.30;;;;;;;7.13;55.34;102038.53;5056506;28;20089;-47
2023/02/26 05:21:04;;;;;;;7.87;1.40;;;;;;;7.00;55.33;102044.16;5057503;28;20089;-49
2023/02/26 05:23:31;;;;;;;13.73;1.88;;;;;;;6.94;55.69;102050.91;5058679;28;20033;-51
2023/02/26 05:25:57;;;;;;;2.67;0.95;;;;;;;6.93;55.40;102040.38;5058926;28;20035;-51
2023/02/26 05:28:25;;;;;;;6.70;1.10;;;;;;;6.96;55.34;102053.41;5057548;28;20040;-53
2023/02/26 05:30:50;;;;;;;12.98;5.05;;;;;;;7.19;55.10;102056.59;5059670;28;20036;-51
2023/02/26 05:33:17;;;;;;;4.00;1.17;;;;;;;6.79;55.27;102060.28;5062482;28;20033;-49
2023/02/26 05:35:42;;;;;;;4.07;0.70;;;;;;;6.69;55.52;102068.25;5080460;28;20059;-53
2023/02/26 05:38:07;;;;;;;7.67;1.20;;;;;;;6.83;55.23;102070.50;5097767;28;20040;-48
2023/02/26 05:40:33;;;;;;;1.33;0.73;;;;;;;6.81;55.45;102074.25;5098791;28;20044;-50
2023/02/26 05:42:58;;;;;;;2.47;1.00;;;;;;;6.71;55.20;102079.56;5082347;28;20158;-48
2023/02/26 05:45:25;;;;;;;5.57;1.17;;;;;;;6.79;55.39;102073.56;5096966;28;20071;-53
2023/02/26 05:47:50;;;;;;;11.10;2.15;;;;;;;6.81;55.46;102079.59;5094118;28;20040;-52
2023/02/26 05:50:16;;;;;;;7.47;1.47;;;;;;;6.76;55.20;102079.16;5097936;28;20096;-52
2023/02/26 05:52:41;;;;;;;2.97;1.03;;;;;;;6.70;55.44;102077.91;5094380;28;20163;-51
2023/02/26 05:55:07;;;;;;;9.30;1.03;;;;;;;6.68;55.33;102085.19;5105630;28;20033;-52
2023/02/26 05:57:33;;;;;;;4.68;0.95;;;;;;;6.60;55.25;102092.03;5096807;28;20034;-47
2023/02/26 05:59:58;;;;;;;3.33;0.77;;;;;;;6.59;55.53;102092.16;5097537;28;20056;-47
2023/02/26 06:02:24;;;;;;;3.23;1.47;;;;;;;6.64;55.18;102094.41;5101916;28;20276;-48
2023/02/26 06:04:49;;;;;;;3.85;0.95;;;;;;;6.63;55.25;102096.22;5100476;28;20063;-48
2023/02/26 06:07:15;;;;;;;5.23;1.40;;;;;;;6.55;55.25;102093.41;5087564;28;20040;-52
2023/02/26 06:09:40;;;;;;;8.80;1.40;;;;;;;6.56;55.30;102103.91;5100582;28;20273;-51
2023/02/26 06:12:06;;;;;;;1.77;1.00;;;;;;;6.57;54.88;102110.91;5099219;28;20032;-47
2023/02/26 06:14:32;;;;;;;8.68;1.48;;;;;;;6.39;55.39;102105.41;5101156;28;20040;-50
2023/02/26 06:16:58;;;;;;;2.67;1.08;;;;;;;6.48;55.14;102108.25;5101934;28;20088;-50
2023/02/26 06:19:23;;;;;;;2.00;0.90;;;;;;;6.40;55.42;102111.56;5102040;28;20024;-49
2023/02/26 06:21:49;;;;;;;7.07;1.13;;;;;;;6.49;55.19;102120.56;5102003;28;20029;-47
2023/02/26 06:24:14;;;;;;;5.30;0.88;;;;;;;6.47;55.36;102122.50;5101153;28;20048;-51
2023/02/26 06:26:40;;;;;;;10.20;1.80;;;;;;;6.39;55.51;102121.34;5099540;28;20071;-51
2023/02/26 06:29:05;;;;;;;5.70;0.70;;;;;;;6.39;55.69;102129.31;5099853;28;20045;-48
2023/02/26 06:31:31;;;;;;;5.85;1.90;;;;;;;6.42;55.60;102131.72;5104362;28;20025;-48
2023/02/26 06:33:56;;;;;;;6.13;1.00;;;;;;;6.43;55.47;102125.41;5099778;28;20033;-52
2023/02/26 06:36:22;;;;;;;4.75;1.20;;;;;;;6.40;55.95;102130.19;5097829;28;20052;-48
2023/02/26 06:38:47;;;;;;;4.30;1.00;;;;;;;6.43;55.72;102138.69;5098196;28;20076;-49
2023/02/26 06:41:13;;;;;;;4.20;1.08;;;;;;;6.29;55.83;102133.78;5103528;28;20033;-49
2023/02/26 06:43:39;;;;;;;6.90;1.00;;;;;;;6.42;55.64;102141.50;5101237;28;20046;-49
2023/02/26 06:46:04;;;;;;;2.15;1.05;;;;;;;6.40;55.69;102146.13;5097627;28;20041;-50
2023/02/26 06:48:30;;;;;;;9.55;1.15;;;;;;;6.42;55.65;102137.03;5101338;28;20056;-50
2023/02/26 06:50:56;;;;;;;3.78;1.17;;;;;;;6.45;55.61;102150.03;5102272;28;20028;-51
2023/02/26 06:53:21;;;;;;;3.50;1.50;;;;;;;6.39;55.78;102149.75;5098136;28;20059;-51
2023/02/26 06:55:50;;;;;;;7.10;0.85;;;;;;;6.61;55.58;102159.31;5095621;28;20067;-51
2023/02/26 06:58:15;;;;;;;11.88;1.88;;;;;;;6.64;55.17;102160.88;5095412;28;20051;-48
2023/02/26 07:00:40;;;;;;;1.87;0.80;;;;;;;6.55;55.54;102165.19;5080967;28;20036;-50
2023/02/26 07:03:10;;;;;;;2.20;0.93;;;;;;;6.59;55.32;102175.41;5098629;28;20054;-54
2023/02/26 07:05:35;;;;;;;7.13;1.40;;;;;;;6.60;55.42;102176.25;5095460;28;20040;-52
2023/02/26 07:08:01;;;;;;;3.00;1.10;;;;;;;6.59;55.22;102179.88;5095153;28;20051;-51
2023/02/26 07:10:27;;;;;;;8.00;1.40;;;;;;;6.55;55.37;102189.94;5101264;28;20056;-53
2023/02/26 07:12:52;;;;;;;7.30;1.15;;;;;;;6.63;55.16;102186.59;5098766;28;20088;-48
2023/02/26 07:15:18;;;;;;;2.50;1.03;;;;;;;6.62;55.49;102192.06;5104908;28;20051;-51
2023/02/26 07:17:43;;;;;;;2.70;1.25;;;;;;;6.74;55.05;102193.63;5098220;28;20024;-48
2023/02/26 07:20:11;;;;;;;5.57;1.10;;;;;;;6.86;54.99;102212.97;5099783;28;20040;-52
2023/02/26 07:22:37;;;;;;;4.65;1.10;;;;;;;6.83;55.04;102213.25;5098018;28;20032;-51
2023/02/26 07:25:03;;;;;;;4.80;1.00;;;;;;;6.81;55.23;102216.06;5098904;28;20040;-54
2023/02/26 07:27:29;;;;;;;3.35;1.45;;;;;;;6.86;55.00;102220.94;5098998;28;20044;-51
2023/02/26 07:29:55;;;;;;;3.75;0.98;;;;;;;6.95;54.97;102222.78;5098567;28;20028;-51
2023/02/26 07:32:21;;;;;;;4.27;1.10;;;;;;;6.95;54.90;102233.44;5098968;28;20032;-51
2023/02/26 07:34:46;;;;;;;9.88;3.13;;;;;;;6.98;55.08;102233.16;5100444;28;20345;-47
2023/02/26 07:37:13;;;;;;;3.35;1.20;;;;;;;7.06;55.20;102242.25;5101302;28;20028;-50
2023/02/26 07:39:39;;;;;;;4.18;1.92;;;;;;;7.08;54.93;102242.97;5094601;28;20048;-52
2023/02/26 07:42:04;;;;;;;7.90;1.47;;;;;;;7.16;55.37;102241.28;5099631;28;20036;-52
2023/02/26 07:44:29;;;;;;;4.47;1.50;;;;;;;7.32;55.03;102251.38;5096799;28;20035;-50
2023/02/26 07:46:55;;;;;;;4.13;1.27;;;;;;;7.45;55.09;102242.31;5094218;28;20037;-49
2023/02/26 07:49:21;;;;;;;6.43;1.77;;;;;;;7.55;55.00;102245.78;5099137;28;20040;-52
2023/02/26 07:51:47;;;;;;;7.38;1.50;;;;;;;7.58;54.75;102255.34;5099025;28;20056;-52
2023/02/26 07:54:13;;;;;;;;;;;;;;;7.48;55.12;102260.66;5099309;28;20029;-54
2023/02/26 07:56:41;;;;;;;7.00;1.10;;;;;;;7.67;54.88;102265.13;5093523;28;19968;-51
2023/02/26 07:59:08;;;;;;;3.92;1.10;;;;;;;7.89;54.50;102263.16;5094156;28;20024;-49
2023/02/26 08:01:34;;;;;;;8.02;2.40;;;;;;;7.70;55.34;102275.50;5100446;28;20058;-52
2023/02/26 08:04:00;;;;;;;3.20;1.08;;;;;;;7.88;55.25;102270.31;5096215;28;20028;-48
2023/02/26 08:06:26;;;;;;;5.57;1.30;;;;;;;8.00;55.04;102272.81;5097082;28;20067;-48
2023/02/26 08:08:52;;;;;;;4.05;1.20;;;;;;;8.06;55.16;102282.88;5094118;28;20040;-51
2023/02/26 08:11:18;;;;;;;2.42;0.82;;;;;;;8.11;54.96;102282.47;5100013;28;20035;-52
2023/02/26 08:13:44;;;;;;;5.47;2.08;;;;;;;8.31;54.21;102277.94;5100637;28;20032;-50
2023/02/26 08:16:09;;;;;;;5.82;1.20;;;;;;;8.47;55.22;102288.81;5099207;28;20040;-51
2023/02/26 08:18:36;;;;;;;6.35;1.00;;;;;;;8.29;55.35;102287.88;5104958;28;20036;-52
2023/02/26 08:21:01;;;;;;;7.80;1.33;;;;;;;8.45;54.92;102292.63;5096135;28;20036;-52
2023/02/26 08:23:27;;;;;;;2.85;1.08;;;;;;;8.47;54.43;102290.66;5100509;28;20265;-49
2023/02/26 08:26:03;;;;;;;3.87;0.93;;;;;;;8.72;54.13;102301.66;5096614;28;20047;-48
2023/02/26 08:28:29;;;;;;;6.30;1.13;;;;;;;8.87;54.67;102300.19;5098822;28;20305;-49
2023/02/26 08:30:55;;;;;;;4.50;0.70;;;;;;;8.84;53.76;102300.47;5098057;28;20048;-48
2023/02/26 08:33:20;;;;;;;10.33;1.13;;;;;;;8.82;53.76;102304.31;5096189;28;20101;-48
2023/02/26 08:35:47;;;;;;;2.70;0.93;;;;;;;9.21;53.89;102312.06;5098703;28;20291;-47
2023/02/26 08:38:13;;;;;;;11.00;1.75;;;;;;;8.93;54.54;102317.44;5096522;28;20032;-50
2023/02/26 08:40:39;;;;;;;9.98;1.35;;;;;;;9.20;53.92;102323.75;5094996;28;20032;-51
2023/02/26 08:43:04;;;;;;;10.90;2.30;;;;;;;9.64;53.82;102324.84;5086201;28;20047;-50
2023/02/26 08:45:30;;;;;;;5.78;1.50;;;;;;;9.85;52.71;102325.38;5102477;28;20051;-48
2023/02/26 08:47:55;;;;;;;4.60;1.10;;;;;;;10.52;51.07;102336.59;5102626;28;20041;-51
2023/02/26 08:50:22;;;;;;;8.27;1.67;;;;;;;11.28;50.14;102339.44;5098863;28;20265;-52
2023/02/26 08:52:48;;;;;;;5.50;1.55;;;;;;;11.35;48.66;102348.47;5100277;28;20040;-50
2023/02/26 08:55:13;;;;;;;4.67;1.50;;;;;;;11.99;49.10;102355.94;5097582;28;20035;-51
2023/02/26 08:57:39;;;;;;;4.27;1.00;;;;;;;12.32;46.81;102355.13;5098084;28;20084;-49
2023/02/26 09:00:09;;;;;;;6.70;2.00;;;;;;;12.81;47.44;102364.06;5099016;28;20272;-52
2023/02/26 09:02:36;;;;;;;4.95;1.50;;;;;;;13.04;45.60;102372.22;5094882;28;20103;-52
2023/02/26 09:05:02;;;;;;;3.70;1.25;;;;;;;13.21;46.41;102372.97;5100232;28;20047;-47
2023/02/26 09:07:28;;;;;;;9.32;1.42;;;;;;;13.98;46.46;102374.03;5097216;28;20048;-52
2023/02/26 09:09:53;;;;;;;5.57;1.13;;;;;;;14.93;43.39;102386.25;5092993;28;20043;-51
2023/02/26 09:12:19;;;;;;;7.17;2.30;;;;;;;14.87;42.05;102385.13;5078200;28;20092;-52
2023/02/26 09:14:44;;;;;;;4.43;1.40;;;;;;;14.60;44.13;102390.09;5098781;28;20261;-50
2023/02/26 09:17:10;;;;;;;4.13;1.20;;;;;;;15.85;41.54;102394.75;5079151;28;20059;-53
2023/02/26 09:19:35;;;;;;;5.95;1.23;;;;;;;16.58;40.01;102408.03;5098436;28;20051;-54
2023/02/26 09:22:01;;;;;;;7.60;1.27;;;;;;;16.90;39.45;102400.34;5095384;28;20055;-51
2023/02/26 09:24:26;;;;;;;3.77;1.50;;;;;;;16.52;42.14;102399.91;5102386;28;20039;-52
2023/02/26 09:26:52;;;;;;;4.53;1.42;;;;;;;17.04;38.98;102395.84;5101102;28;20273;-54
2023/02/26 09:29:17;;;;;;;3.83;1.10;;;;;;;17.26;38.32;102400.31;5098361;28;20040;-51
2023/02/26 09:31:43;;;;;;;4.05;1.35;;;;;;;17.37;41.04;102409.72;5096769;28;20123;-52
2023/02/26 09:34:09;;;;;;;2.47;1.23;;;;;;;17.14;40.37;102409.00;5096805;28;20056;-51
2023/02/26 09:36:36;;;;;;;4.65;1.13;;;;;;;17.72;39.70;102417.72;5099281;28;20059;-51
2023/02/26 09:39:02;;;;;;;3.23;1.30;;;;;;;17.83;38.74;102414.41;5102680;28;20033;-52
2023/02/26 09:41:42;;;;;;;3.15;1.35;;;;;;;17.44;35.99;102418.69;5107396;28;20285;-52
2023/02/26 09:44:29;;;;;;;4.07;1.07;;;;;;;17.88;36.16;102414.63;5105758;28;20036;-48
2023/02/26 09:47:17;;;;;;;;;;;;;;;17.61;38.23;102424.56;5101846;28;20254;-50
2023/02/26 09:49:52;;;;;;;3.60;1.27;;;;;;;18.51;36.92;102414.47;5104006;28;19923;-52
2023/02/26 09:52:33;;;;;;;3.30;0.95;;;;;;;18.40;32.38;102427.59;5101315;28;20318;-50
2023/02/26 09:55:02;;;;;;;3.53;0.90;;;;;;;18.71;35.26;102415.28;5100407;28;20048;-53
2023/02/26 09:57:35;;;;;;;3.63;0.97;;;;;;;18.49;34.72;102426.34;5101768;28;20028;-51
2023/02/26 10:00:06;;;;;;;2.73;0.93;;;;;;;18.35;37.04;102419.25;5103770;28;20055;-55
2023/02/26 10:02:49;;;;;;;3.17;1.50;;;;;;;18.74;32.81;102424.84;5103514;28;20125;-53
2023/02/26 10:05:41;;;;;;;2.97;0.87;;;;;;;18.78;31.83;102429.63;5102672;28;21464;-52
2023/02/26 10:08:14;;;;;;;3.93;0.80;;;;;;;18.40;35.03;102437.59;5099942;28;20040;-53
2023/02/26 10:11:29;;;;;;;3.87;0.83;;;;;;;19.23;31.53;102444.34;5101693;28;20032;-51
2023/02/26 10:14:15;;;;;;;2.13;1.17;;;;;;;20.99;32.60;102439.31;4995768;28;20046;-50
2023/02/26 10:16:45;;;;;;;2.40;1.20;;;;;;;20.95;31.17;102443.50;5103301;28;20437;-51
2023/02/26 10:19:15;;;;;;;2.97;0.80;;;;;;;20.98;31.18;102440.34;5083180;28;20036;-50
2023/02/26 10:21:46;;;;;;;2.07;1.00;;;;;;;20.18;33.54;102456.34;5101661;28;20032;-51
2023/02/26 10:24:43;;;;;;;3.67;0.90;;;;;;;20.65;30.81;102460.53;5102840;28;20032;-51
2023/02/26 10:27:15;;;;;;;5.90;0.95;;;;;;;20.87;31.20;102452.78;5093299;28;20046;-52
2023/02/26 10:29:56;;;;;;;1.87;0.90;;;;;;;20.66;31.54;102455.94;5098328;28;20040;-53
2023/02/26 10:32:49;;;;;;;1.23;0.70;;;;;;;21.55;30.42;102458.28;5098238;28;20032;-52
2023/02/26 10:35:17;;;;;;;3.80;0.80;;;;;;;21.68;28.06;102472.78;5100875;28;20093;-55
2023/02/26 10:37:57;;;;;;;4.50;1.10;;;;;;;21.72;29.83;102474.81;5103654;28;20024;-50
2023/02/26 10:40:35;;;;;;;3.23;0.77;;;;;;;22.32;27.55;102475.78;5105111;28;20036;-50
2023/02/26 10:43:23;;;;;;;1.43;0.73;;;;;;;22.46;30.02;102476.44;5099594;28;20047;-52
2023/02/26 10:46:15;;;;;;;2.83;1.00;;;;;;;21.62;30.47;102475.34;5102351;28;20039;-47
2023/02/26 10:49:06;;;;;;;4.20;1.23;;;;;;;21.23;30.62;102474.81;5097554;28;20047;-52
2023/02/26 10:51:36;;;;;;;2.30;0.70;;;;;;;20.60;29.65;102474.78;5095416;28;20047;-53
2023/02/26 10:54:28;;;;;;;2.40;1.10;;;;;;;20.73;29.26;102483.88;5101021;28;20097;-53
2023/02/26 10:56:54;;;;;;;1.63;0.87;;;;;;;20.94;32.17;102479.91;5099122;28;20024;-49
2023/02/26 10:59:20;;;;;;;7.18;1.27;;;;;;;19.73;33.30;102472.69;5101022;28;20024;-53
2023/02/26 11:01:47;;;;;;;2.30;0.90;;;;;;;17.91;32.33;102476.47;5101935;28;20035;-50
2023/02/26 11:04:19;;;;;;;8.63;1.73;;;;;;;18.27;34.50;102473.63;5101149;28;20074;-49
2023/02/26 11:06:53;;;;;;;4.53;2.03;;;;;;;18.94;34.19;102480.88;5099845;28;20087;-47
2023/02/26 11:09:24;;;;;;;3.03;0.80;;;;;;;18.01;31.57;102483.38;5099019;28;20047;-53
2023/02/26 11:11:54;;;;;;;4.10;1.00;;;;;;;16.94;38.01;102476.44;5097792;28;20280;-52
2023/02/26 11:14:21;;;;;;;5.47;1.33;;;;;;;16.70;34.55;102473.16;5097493;28;20274;-53
2023/02/26 11:16:51;;;;;;;3.37;1.23;;;;;;;16.19;35.80;102474.19;5098043;28;20945;-51
2023/02/26 11:19:23;;;;;;;7.63;1.67;;;;;;;16.85;35.46;102472.22;5101629;28;20258;-53
2023/02/26 11:21:50;;;;;;;3.63;1.17;;;;;;;16.82;33.37;102475.31;5099753;28;20263;-49
2023/02/26 11:24:26;;;;;;;3.78;1.10;;;;;;;16.56;35.09;102482.19;5099505;28;20280;-50
2023/02/26 11:26:53;;;;;;;2.85;1.00;;;;;;;17.10;39.45;102463.69;5098763;28;20048;-51
2023/02/26 11:29:21;;;;;;;8.20;1.47;;;;;;;17.28;34.23;102474.78;5099157;28;20047;-53
2023/02/26 11:31:50;;;;;;;3.17;1.17;;;;;;;19.45;30.64;102469.25;5100101;28;20273;-50
2023/02/26 11:34:22;;;;;;;4.77;1.30;;;;;;;21.14;30.71;102473.44;5095297;28;20304;-51
2023/02/26 11:36:48;;;;;;;5.30;1.27;;;;;;;22.61;27.78;102478.69;5100861;28;20300;-54
2023/02/26 11:39:21;;;;;;;4.72;2.00;;;;;;;24.15;25.81;102478.47;5107311;28;20028;-52
2023/02/26 11:41:49;;;;;;;3.93;1.10;;;;;;;25.11;27.01;102476.63;5098794;28;20044;-49
2023/02/26 11:44:23;;;;;;;4.63;0.90;;;;;;;24.10;27.51;102481.09;5099629;28;20059;-51
2023/02/26 11:46:55;;;;;;;5.20;1.20;;;;;;;24.81;27.18;102490.72;5104720;28;20028;-54
2023/02/26 11:49:24;;;;;;;2.57;1.27;;;;;;;24.91;28.52;102479.88;5098839;28;20055;-52